Marvel — V7OZ3 — position and weather

sailwx.info

Track history (hours):
 
Tides and Currents Weather Stations Pressure Air Temp Water Temp Dewpoint Dewpoint Depression Visibility Wind Speed Wind Dir Waves Ship Positions

Marvel

Last reported at 2019-Feb-08 03:56 UTC. Time now 2019-Feb-17 15:57 UTC.
Position N 47°11' W 052°36'.
Warning: this ship's position is 9 days out of date.

Length 182 m; draft 7.1 m.

Type: Tanker. MMSI: 538003191.

Date/timePositionNaut miles runAvg speedWind from/ knotsBaromVisibWave heightAir tempDewpointWater temp
2019-Feb-08 03:56N 47°11' W 052°36'713.5
2019-Feb-08 03:27N 47°17' W 052°34'613.3
2019-Feb-08 03:00N 47°23' W 052°31'713.0
2019-Feb-08 02:29N 47°30' W 052°30'712.9
2019-Feb-08 01:58N 47°36' W 052°31'712.8
2019-Feb-08 01:23N 47°43' W 052°33'23 8.3
2019-Feb-07 22:40N 47°36' W 053°05'312.5
2019-Feb-07 22:24N 47°33' W 053°05'3 5.0
2019-Feb-07 21:50N 47°31' W 053°02'2 0.0
2019-Feb-06 07:07N 47°32' W 053°00'0 0.0
2019-Feb-06 05:13N 47°32' W 053°00'0 0.0
2019-Feb-06 04:34N 47°32' W 053°00'0 0.0
2019-Feb-06 02:49N 47°32' W 053°00'22 3.0
2019-Feb-05 19:37N 47°44' W 052°33'312.3
2019-Feb-05 19:23N 47°41' W 052°32'511.9
2019-Feb-05 18:57N 47°36' W 052°31'512.0
2019-Feb-05 18:30N 47°30' W 052°30'711.8
2019-Feb-05 17:56N 47°24' W 052°31'611.8
2019-Feb-05 17:25N 47°18' W 052°32'3 7.7
2019-Feb-05 16:58N 47°14' W 052°32'  
Track history (hours):
 
Tides and Currents Weather Stations Pressure Air Temp Water Temp Dewpoint Dewpoint Depression Visibility Wind Speed Wind Dir Waves Ship Positions

Marvel

Last reported at 2019-Feb-08 03:56 UTC. Time now 2019-Feb-17 15:57 UTC.
Position N 47°11' W 052°36'.
Warning: this ship's position is 9 days out of date.

Length 182 m; draft 7.1 m.

Type: Tanker. MMSI: 538003191.

Date/timePositionNaut miles runAvg speedWind from/ knotsBaromVisibWave heightAir tempDewpointWater temp
2019-Feb-08 03:56N 47°11' W 052°36'713.5
2019-Feb-08 03:27N 47°17' W 052°34'613.3
2019-Feb-08 03:00N 47°23' W 052°31'713.0
2019-Feb-08 02:29N 47°30' W 052°30'712.9
2019-Feb-08 01:58N 47°36' W 052°31'712.8
2019-Feb-08 01:23N 47°43' W 052°33'23 8.3
2019-Feb-07 22:40N 47°36' W 053°05'312.5
2019-Feb-07 22:24N 47°33' W 053°05'3 5.0
2019-Feb-07 21:50N 47°31' W 053°02'2 0.0
2019-Feb-06 07:07N 47°32' W 053°00'0 0.0
2019-Feb-06 05:13N 47°32' W 053°00'0 0.0
2019-Feb-06 04:34N 47°32' W 053°00'0 0.0
2019-Feb-06 02:49N 47°32' W 053°00'22 3.0
2019-Feb-05 19:37N 47°44' W 052°33'312.3
2019-Feb-05 19:23N 47°41' W 052°32'511.9
2019-Feb-05 18:57N 47°36' W 052°31'512.0
2019-Feb-05 18:30N 47°30' W 052°30'711.8
2019-Feb-05 17:56N 47°24' W 052°31'611.8
2019-Feb-05 17:25N 47°18' W 052°32'3 7.7
2019-Feb-05 16:58N 47°14' W 052°32'  

Dump ship's entire track history